Time;durP1;ratioP1;P1;durP2;ratioP2;P2;SDS_P1;SDS_P2;PMS_P1;PMS_P2;Temp;Humidity;BMP_temperature;BMP_pressure;BME280_temperature;BME280_humidity;BME280_pressure;Samples;Min_cycle;Max_cycle;Signal;HPM_P1;HPM_P2
2022/03/23 00:00:57;;;;;;;8.23;3.28;;;;;;;;;;5025605;28;20033;-49
2022/03/23 00:03:24;;;;;;;5.30;3.42;;;;;;;;;;5025753;28;20034;-52
2022/03/23 00:05:53;;;;;;;5.07;2.88;;;;;;;;;;5025512;28;20017;-49
2022/03/23 00:08:21;;;;;;;6.82;3.45;;;;;;;;;;5025966;28;20412;-48
2022/03/23 00:10:48;;;;;;;6.20;3.47;;;;;;;;;;5024626;28;20072;-49
2022/03/23 00:13:15;;;;;;;6.80;3.67;;;;;;;;;;5025719;28;20056;-50
2022/03/23 00:15:41;;;;;;;7.25;3.25;;;;;;;;;;5024728;28;20041;-49
2022/03/23 00:18:07;;;;;;;5.22;3.17;;;;;;;;;;5026040;28;20037;-51
2022/03/23 00:20:34;;;;;;;6.38;3.33;;;;;;;;;;5023127;28;20061;-48
2022/03/23 00:23:00;;;;;;;5.47;3.20;;;;;;;;;;5025305;28;20739;-48
2022/03/23 00:25:27;;;;;;;5.25;3.10;;;;;;;;;;5025213;28;20029;-51
2022/03/23 00:27:54;;;;;;;5.88;3.22;;;;;;;;;;5024252;28;20436;-48
2022/03/23 00:30:21;;;;;;;4.65;2.50;;;;;;;;;;5025511;28;20105;-49
2022/03/23 00:32:48;;;;;;;6.57;3.30;;;;;;;;;;5023503;28;20136;-48
2022/03/23 00:35:14;;;;;;;3.92;2.72;;;;;;;;;;5025257;28;20025;-49
2022/03/23 00:37:40;;;;;;;4.88;2.75;;;;;;;;;;5029940;28;20056;-48
2022/03/23 00:40:06;;;;;;;;;;;;;;;;;;5043971;28;20488;-48
2022/03/23 00:42:33;;;;;;;;;;;;;;;;;;5047424;28;19908;-49
2022/03/23 00:44:59;;;;;;;;;;;;;;;;;;5042307;28;19913;-47
2022/03/23 00:47:25;;;;;;;;;;;;;;;;;;5047503;28;19905;-48
2022/03/23 00:49:52;;;;;;;;;;;;;;;;;;5044307;28;19909;-47
2022/03/23 00:52:19;;;;;;;;;;;;;;;;;;5045909;28;19904;-48
2022/03/23 00:54:46;;;;;;;;;;;;;;;;;;5045631;28;19954;-47
2022/03/23 00:57:13;;;;;;;;;;;;;;;;;;5045902;28;19908;-47
2022/03/23 00:59:39;;;;;;;;;;;;;;;;;;5044937;28;19962;-47
2022/03/23 01:02:09;;;;;;;;;;;;;;;;;;5051836;28;19908;-47
2022/03/23 01:04:36;;;;;;;;;;;;;;;;;;5066297;28;19909;-48
2022/03/23 01:07:02;;;;;;;;;;;;;;;;;;5055150;28;19912;-47
2022/03/23 01:09:28;;;;;;;;;;;;;;;;;;5045214;28;20395;-48
2022/03/23 01:11:55;;;;;;;;;;;;;;;;;;5043467;28;19944;-47
2022/03/23 01:14:22;;;;;;;;;;;;;;;;;;5045772;28;20318;-47
2022/03/23 01:16:48;;;;;;;;;;;;;;;;;;5044964;28;19908;-48
2022/03/23 01:19:16;;;;;;;;;;;;;;;;;;5045502;28;19920;-47
2022/03/23 01:21:42;;;;;;;;;;;;;;;;;;5043623;28;19912;-50
2022/03/23 01:24:08;;;;;;;;;;;;;;;;;;5043976;28;19920;-50
2022/03/23 01:26:34;;;;;;;;;;;;;;;;;;5044201;28;19957;-50
2022/03/23 01:29:00;;;;;;;;;;;;;;;;;;5043944;28;19909;-47
2022/03/23 01:31:27;;;;;;;;;;;;;;;;;;5044871;28;20005;-49
2022/03/23 01:33:59;;;;;;;;;;;;;;;;;;5042975;28;19928;-49
2022/03/23 01:36:25;;;;;;;;;;;;;;;;;;5045530;28;19905;-47
2022/03/23 01:38:50;;;;;;;;;;;;;;;;;;5044930;28;19908;-46
2022/03/23 01:41:17;;;;;;;;;;;;;;;;;;5045143;28;19908;-47
2022/03/23 01:43:43;;;;;;;;;;;;;;;;;;5044587;28;19916;-49
2022/03/23 01:46:08;;;;;;;;;;;;;;;;;;5044590;28;19904;-47
2022/03/23 01:48:34;;;;;;;;;;;;;;;;;;5045419;28;19911;-47
2022/03/23 01:51:00;;;;;;;;;;;;;;;;;;5045268;28;19904;-47
2022/03/23 01:53:26;;;;;;;;;;;;;;;;;;5043380;28;19909;-46
2022/03/23 01:55:52;;;;;;;;;;;;;;;;;;5045016;28;19915;-48
2022/03/23 01:58:22;;;;;;;;;;;;;;;;;;5045105;28;19909;-48
2022/03/23 02:00:48;;;;;;;;;;;;;;;;;;5044695;28;19909;-50
2022/03/23 02:03:13;;;;;;;;;;;;;;;;;;5044666;28;19958;-49
2022/03/23 02:05:39;;;;;;;;;;;;;;;;;;5043704;28;19916;-51
2022/03/23 02:08:05;;;;;;;;;;;;;;;;;;5045354;28;19905;-50
2022/03/23 02:10:32;;;;;;;;;;;;;;;;;;5045061;28;19923;-49
2022/03/23 02:12:58;;;;;;;;;;;;;;;;;;5044669;28;19913;-48
2022/03/23 02:15:26;;;;;;;;;;;;;;;;;;5030186;28;19909;-47
2022/03/23 02:17:54;;;;;;;;;;;;;;;;;;5024711;28;20356;-47
2022/03/23 02:20:21;;;;;;;;;;;;;;;;;;5025242;28;19905;-48
2022/03/23 02:22:48;;;;;;;;;;;;;;;;;;5029140;28;20307;-47
2022/03/23 02:25:14;;;;;;;;;;;;;;;;;;5043537;28;19909;-47
2022/03/23 02:27:42;;;;;;;;;;;;;;;;;;5044644;28;19909;-47
2022/03/23 02:30:09;;;;;;;;;;;;;;;;;;5045587;28;20451;-47
2022/03/23 02:32:36;;;;;;;;;;;;;;;;;;5044678;28;19909;-47
2022/03/23 02:35:01;;;;;;;;;;;;;;;;;;5041236;28;19916;-47
2022/03/23 02:37:27;;;;;;;;;;;;;;;;;;5030726;28;19912;-47
2022/03/23 02:39:53;;;;;;;;;;;;;;;;;;5048434;28;19908;-46
2022/03/23 02:42:19;;;;;;;;;;;;;;;;;;5048343;28;19973;-47
2022/03/23 02:44:45;;;;;;;;;;;;;;;;;;5040072;28;19913;-46
2022/03/23 02:47:11;;;;;;;;;;;;;;;;;;5028098;28;19947;-48
2022/03/23 02:49:37;;;;;;;;;;;;;;;;;;5028664;28;20376;-48
2022/03/23 02:52:03;;;;;;;;;;;;;;;;;;5028082;28;20341;-49
2022/03/23 03:02:43;;;;;;;;;;;;;;;;;;5047221;28;19966;-50
2022/03/23 03:05:09;;;;;;;;;;;;;;;;;;5047294;28;19960;-48
2022/03/23 03:10:20;;;;;;;;;;;;;;;;;;5047798;28;19919;-47
2022/03/23 03:12:47;;;;;;;;;;;;;;;;;;5047224;28;20324;-48
2022/03/23 03:15:14;;;;;;;;;;;;;;;;;;5046620;28;20387;-49
2022/03/23 03:17:40;;;;;;;;;;;;;;;;;;5047266;28;19905;-47
2022/03/23 03:20:06;;;;;;;;;;;;;;;;;;5048214;28;19950;-47
2022/03/23 03:22:32;;;;;;;;;;;;;;;;;;5047524;28;19911;-48
2022/03/23 03:24:58;;;;;;;;;;;;;;;;;;5046327;28;19944;-47
2022/03/23 03:27:24;;;;;;;;;;;;;;;;;;5029638;28;20399;-52
2022/03/23 03:29:50;;;;;;;;;;;;;;;;;;5027377;28;20544;-48
2022/03/23 03:32:16;;;;;;;;;;;;;;;;;;5033074;28;20441;-47
2022/03/23 03:34:42;;;;;;;;;;;;;;;;;;5045797;28;19983;-47
2022/03/23 03:37:09;;;;;;;;;;;;;;;;;;5048176;28;20463;-50
2022/03/23 03:39:35;;;;;;;;;;;;;;;;;;5027814;28;20316;-48
2022/03/23 03:42:01;;;;;;;;;;;;;;;;;;5027589;28;19909;-47
2022/03/23 03:44:27;;;;;;;;;;;;;;;;;;5028124;28;19920;-48
2022/03/23 03:46:53;;;;;;;;;;;;;;;;;;5046819;28;20320;-48
2022/03/23 03:49:19;;;;;;;;;;;;;;;;;;5046347;28;20003;-47
2022/03/23 03:51:46;;;;;;;;;;;;;;;;;;5027547;28;19913;-47
2022/03/23 03:54:12;;;;;;;;;;;;;;;;;;5027460;28;20077;-48
2022/03/23 03:56:39;;;;;;;;;;;;;;;;;;5027345;28;20480;-49
2022/03/23 03:59:05;;;;;;;;;;;;;;;;;;5026781;28;19927;-47
2022/03/23 04:01:31;;;;;;;;;;;;;;;;;;5026943;28;19901;-47
2022/03/23 04:03:58;;;;;;;;;;;;;;;;;;5026704;28;19905;-47
2022/03/23 04:06:24;;;;;;;;;;;;;;;;;;5044012;28;20019;-48
2022/03/23 04:08:50;;;;;;;;;;;;;;;;;;5046512;28;19999;-50
2022/03/23 04:11:17;;;;;;;;;;;;;;;;;;5046508;28;19961;-47
2022/03/23 04:13:43;;;;;;;;;;;;;;;;;;5046179;28;19916;-48
2022/03/23 04:16:09;;;;;;;;;;;;;;;;;;5030358;28;19945;-47
2022/03/23 04:18:35;;;;;;;;;;;;;;;;;;5026606;28;19905;-47
2022/03/23 04:21:01;;;;;;;;;;;;;;;;;;5025659;28;20214;-47
2022/03/23 04:23:28;;;;;;;;;;;;;;;;;;5026283;28;19905;-47
2022/03/23 04:25:54;;;;;;;;;;;;;;;;;;5038248;28;20271;-47
2022/03/23 04:28:21;;;;;;;;;;;;;;;;;;5046507;28;19912;-47
2022/03/23 04:30:48;;;;;;;;;;;;;;;;;;5045819;28;19905;-48
2022/03/23 04:33:14;;;;;;;;;;;;;;;;;;5045179;28;20014;-48
2022/03/23 04:35:40;;;;;;;;;;;;;;;;;;5044919;28;20349;-47
2022/03/23 04:38:06;;;;;;;;;;;;;;;;;;5046395;28;20307;-48
2022/03/23 04:40:32;;;;;;;;;;;;;;;;;;5046071;28;19901;-49
2022/03/23 04:42:58;;;;;;;;;;;;;;;;;;5044683;28;20278;-47
2022/03/23 04:45:24;;;;;;;;;;;;;;;;;;5044769;28;19912;-47
2022/03/23 04:47:50;;;;;;;;;;;;;;;;;;5045427;28;19966;-48
2022/03/23 04:50:16;;;;;;;;;;;;;;;;;;5045951;28;19951;-48
2022/03/23 04:52:42;;;;;;;;;;;;;;;;;;5046069;28;19912;-48
2022/03/23 04:55:09;;;;;;;;;;;;;;;;;;5044616;28;19909;-51
2022/03/23 04:57:35;;;;;;;;;;;;;;;;;;5045673;28;20405;-48
2022/03/23 05:00:01;;;;;;;;;;;;;;;;;;5045160;28;19904;-50
2022/03/23 05:02:28;;;;;;;;;;;;;;;;;;5040757;28;20376;-49
2022/03/23 05:04:54;;;;;;;;;;;;;;;;;;5024744;28;19964;-47
2022/03/23 05:07:20;;;;;;;;;;;;;;;;;;5025814;28;20117;-47
2022/03/23 05:09:46;;;;;;;;;;;;;;;;;;5025441;28;19912;-47
2022/03/23 05:12:12;;;;;;;;;;;;;;;;;;5026202;28;19947;-48
2022/03/23 05:14:38;;;;;;;;;;;;;;;;;;5029199;28;19908;-48
2022/03/23 05:17:04;;;;;;;;;;;;;;;;;;5044830;28;19999;-48
2022/03/23 05:19:30;;;;;;;;;;;;;;;;;;5045468;28;20411;-47
2022/03/23 05:21:56;;;;;;;;;;;;;;;;;;5044724;28;19927;-48
2022/03/23 05:24:22;;;;;;;;;;;;;;;;;;5044476;28;19905;-47
2022/03/23 05:26:48;;;;;;;;;;;;;;;;;;5045225;28;19904;-47
2022/03/23 05:29:14;;;;;;;;;;;;;;;;;;5044999;28;19915;-49
2022/03/23 05:31:40;;;;;;;;;;;;;;;;;;5045657;28;20378;-49
2022/03/23 05:34:06;;;;;;;;;;;;;;;;;;5045147;28;20276;-50
2022/03/23 05:36:32;;;;;;;;;;;;;;;;;;5028219;28;19913;-51
2022/03/23 05:38:58;;;;;;;;;;;;;;;;;;5025018;28;19912;-49
2022/03/23 05:41:24;;;;;;;;;;;;;;;;;;5025417;28;19904;-47
2022/03/23 05:43:50;;;;;;;;;;;;;;;;;;5024918;28;19932;-50
2022/03/23 05:46:16;;;;;;;;;;;;;;;;;;5025692;28;19956;-49
2022/03/23 05:48:44;;;;;;;;;;;;;;;;;;5041615;28;19920;-47
2022/03/23 05:51:10;;;;;;;;;;;;;;;;;;5045333;28;20003;-47
2022/03/23 05:53:36;;;;;;;;;;;;;;;;;;5036520;28;20379;-47
2022/03/23 05:56:04;;;;;;;;;;;;;;;;;;5043394;28;20526;-48
2022/03/23 05:58:30;;;;;;;;;;;;;;;;;;5045261;28;19908;-48
2022/03/23 06:00:56;;;;;;;;;;;;;;;;;;5045022;28;20367;-48
2022/03/23 06:03:22;;;;;;;;;;;;;;;;;;5044876;28;19909;-49
2022/03/23 06:05:48;;;;;;;;;;;;;;;;;;5043169;28;20431;-49
2022/03/23 06:08:14;;;;;;;;;;;;;;;;;;5044841;28;19916;-49
2022/03/23 06:10:40;;;;;;;;;;;;;;;;;;5044439;28;19919;-49
2022/03/23 06:13:06;;;;;;;;;;;;;;;;;;5043701;28;19931;-50
2022/03/23 06:15:32;;;;;;;;;;;;;;;;;;5048760;28;19905;-48
2022/03/23 06:17:58;;;;;;;;;;;;;;;;;;5045272;28;19909;-51
2022/03/23 06:20:24;;;;;;;;;;;;;;;;;;5050416;28;20407;-51
2022/03/23 06:22:51;;;;;;;;;;;;;;;;;;5049363;28;19909;-48
2022/03/23 06:25:17;;;;;;;;;;;;;;;;;;5049300;28;19920;-47
2022/03/23 06:27:43;;;;;;;;;;;;;;;;;;5030991;28;19963;-47
2022/03/23 06:30:09;;;;;;;;;;;;;;;;;;5030018;28;20357;-48
2022/03/23 06:32:35;;;;;;;;;;;;;;;;;;5030519;28;19917;-51
2022/03/23 06:35:01;;;;;;;;;;;;;;;;;;5049666;28;19940;-50
2022/03/23 06:37:27;;;;;;;;;;;;;;;;;;5049519;28;19912;-50
2022/03/23 06:39:54;;;;;;;;;;;;;;;;;;5049888;28;20648;-47
2022/03/23 06:42:20;;;;;;;;;;;;;;;;;;5031259;28;19971;-50
2022/03/23 06:44:46;;;;;;;;;;;;;;;;;;5034811;28;20335;-50
2022/03/23 06:47:12;;;;;;;;;;;;;;;;;;5046725;28;19913;-47
2022/03/23 06:49:39;;;;;;;;;;;;;;;;;;5049396;28;19908;-48
2022/03/23 06:52:05;;;;;;;;;;;;;;;;;;5042475;28;19959;-49
2022/03/23 06:54:31;;;;;;;;;;;;;;;;;;5029018;28;20373;-51
2022/03/23 06:56:57;;;;;;;;;;;;;;;;;;5040493;28;20529;-50
2022/03/23 06:59:23;;;;;;;;;;;;;;;;;;5040008;28;19909;-47
2022/03/23 07:01:49;;;;;;;;;;;;;;;;;;5033050;28;19913;-49
2022/03/23 07:04:15;;;;;;;;;;;;;;;;;;5030476;28;19916;-49
2022/03/23 07:06:41;;;;;;;;;;;;;;;;;;5046801;28;20391;-49
2022/03/23 07:11:52;;;;;;;;;;;;;;;;;;5032176;28;20296;-48
2022/03/23 07:14:18;;;;;;;;;;;;;;;;;;5038061;28;19916;-48
2022/03/23 07:16:44;;;;;;;;;;;;;;;;;;5042352;28;19916;-47
2022/03/23 07:19:10;;;;;;;;;;;;;;;;;;5038672;28;19913;-47
2022/03/23 07:21:36;;;;;;;;;;;;;;;;;;5028626;28;20285;-48
2022/03/23 07:24:02;;;;;;;;;;;;;;;;;;5027642;28;19912;-50
2022/03/23 07:26:28;;;;;;;;;;;;;;;;;;5028084;28;20012;-48
2022/03/23 07:28:54;;;;;;;;;;;;;;;;;;5037317;28;20435;-49
2022/03/23 07:31:20;;;;;;;;;;;;;;;;;;5038704;28;19935;-49
2022/03/23 07:33:46;;;;;;;;;;;;;;;;;;5039453;28;19912;-47
2022/03/23 07:36:13;;;;;;;;;;;;;;;;;;5044640;28;19909;-48
2022/03/23 07:38:39;;;;;;;;;;;;;;;;;;5036497;28;19911;-47
2022/03/23 07:41:05;;;;;;;;;;;;;;;;;;5031710;28;19909;-49
2022/03/23 07:43:31;;;;;;;;;;;;;;;;;;5029398;28;20287;-48
2022/03/23 07:45:57;;;;;;;;;;;;;;;;;;5033388;28;19916;-48
2022/03/23 07:48:24;;;;;;;;;;;;;;;;;;5029977;28;19912;-49
2022/03/23 07:50:50;;;;;;;;;;;;;;;;;;5032191;28;19913;-49
2022/03/23 07:53:16;;;;;;;;;;;;;;;;;;5028548;28;19945;-49
2022/03/23 07:55:42;;;;;;;;;;;;;;;;;;5027045;28;19967;-47
2022/03/23 07:58:08;;;;;;;;;;;;;;;;;;5027962;28;19982;-47
2022/03/23 08:00:34;;;;;;;;;;;;;;;;;;5028526;28;20591;-48
2022/03/23 08:03:01;;;;;;;;;;;;;;;;;;5027951;28;19932;-52
2022/03/23 08:05:28;;;;;;;;;;;;;;;;;;5029070;28;19916;-51
2022/03/23 08:07:54;;;;;;;;;;;;;;;;;;5028535;28;19955;-51
2022/03/23 08:10:21;;;;;;;;;;;;;;;;;;5036807;28;19920;-51
2022/03/23 08:12:47;;;;;;;;;;;;;;;;;;5036169;28;19940;-52
2022/03/23 08:15:13;;;;;;;;;;;;;;;;;;5028258;28;20320;-48
2022/03/23 08:17:40;;;;;;;;;;;;;;;;;;5042481;28;19909;-48
2022/03/23 08:22:51;;;;;;;;;;;;;;;;;;5029157;28;20335;-49
2022/03/23 08:25:17;;;;;;;;;;;;;;;;;;5038986;28;20412;-48
2022/03/23 08:27:43;;;;;;;;;;;;;;;;;;5045960;28;19908;-48
2022/03/23 08:30:09;;;;;;;;;;;;;;;;;;5026497;28;19951;-49
2022/03/23 08:32:35;;;;;;;;;;;;;;;;;;5026270;28;19913;-50
2022/03/23 08:35:01;;;;;;;;;;;;;;;;;;5026006;28;20000;-51
2022/03/23 08:37:28;;;;;;;;;;;;;;;;;;5026165;28;20343;-51
2022/03/23 08:39:54;;;;;;;;;;;;;;;;;;5026459;28;20301;-50
2022/03/23 08:42:20;;;;;;;;;;;;;;;;;;5045945;28;19912;-50
2022/03/23 08:44:46;;;;;;;;;;;;;;;;;;5058002;28;19916;-49
2022/03/23 08:47:12;;;;;;;;;;;;;;;;;;5045718;28;19950;-51
2022/03/23 08:49:39;;;;;;;;;;;;;;;;;;5039868;28;19924;-52
2022/03/23 08:52:05;;;;;;;;;;;;;;;;;;5026382;28;19916;-51
2022/03/23 08:54:31;;;;;;;;;;;;;;;;;;5025775;28;19913;-51
2022/03/23 08:56:57;;;;;;;;;;;;;;;;;;5026243;28;20435;-48
2022/03/23 08:59:23;;;;;;;;;;;;;;;;;;5026536;28;19905;-47
2022/03/23 09:01:49;;;;;;;;;;;;;;;;;;5025682;28;19916;-47
2022/03/23 09:04:15;;;;;;;;;;;;;;;;;;5025862;28;20164;-51
2022/03/23 09:06:42;;;;;;;;;;;;;;;;;;5025432;28;19987;-50
2022/03/23 09:09:08;;;;;;;;;;;;;;;;;;5025482;28;19916;-49
2022/03/23 09:11:34;;;;;;;;;;;;;;;;;;5025548;28;20419;-52
2022/03/23 09:14:00;;;;;;;;;;;;;;;;;;5024953;28;19925;-50
2022/03/23 09:16:28;;;;;;;;;;;;;;;;;;5025602;28;19923;-52
2022/03/23 09:18:55;;;;;;;;;;;;;;;;;;5026146;28;19909;-49
2022/03/23 09:21:21;;;;;;;;;;;;;;;;;;5025344;28;19928;-51
2022/03/23 09:23:48;;;;;;;;;;;;;;;;;;5024774;28;19909;-51
2022/03/23 09:26:15;;;;;;;;;;;;;;;;;;5025179;28;19915;-51
2022/03/23 09:28:41;;;;;;;;;;;;;;;;;;5024593;28;19909;-52
2022/03/23 09:31:07;;;;;;;;;;;;;;;;;;5025008;28;19924;-48
2022/03/23 09:33:34;;;;;;;;;;;;;;;;;;5025424;28;20066;-50
2022/03/23 09:36:00;;;;;;;;;;;;;;;;;;5025179;28;20433;-51
2022/03/23 09:38:26;;;;;;;;;;;;;;;;;;5025612;28;19956;-50
2022/03/23 09:40:52;;;;;;;;;;;;;;;;;;5024849;28;20604;-51
2022/03/23 09:43:19;;;;;;;;;;;;;;;;;;5024890;28;19908;-51
2022/03/23 09:45:48;;;;;;;;;;;;;;;;;;5024130;28;19912;-48
2022/03/23 09:48:14;;;;;;;;;;;;;;;;;;5024634;28;19909;-51
2022/03/23 09:50:40;;;;;;;;;;;;;;;;;;5024171;28;19912;-51
2022/03/23 09:53:07;;;;;;;;;;;;;;;;;;5024575;28;19916;-49
2022/03/23 09:55:33;;;;;;;;;;;;;;;;;;5024966;28;19979;-51
2022/03/23 09:58:00;;;;;;;;;;;;;;;;;;5024883;28;20301;-50
2022/03/23 10:00:29;;;;;;;;;;;;;;;;;;5025317;28;20502;-52
2022/03/23 10:02:55;;;;;;;;;;;;;;;;;;5025133;28;19912;-51
2022/03/23 10:05:24;;;;;;;;;;;;;;;;;;5024774;28;19909;-50
2022/03/23 10:07:50;;;;;;;;;;;;;;;;;;5024679;28;19909;-50
2022/03/23 10:10:16;;;;;;;;;;;;;;;;;;5024640;28;19944;-49
2022/03/23 10:12:43;;;;;;;;;;;;;;;;;;5024242;28;19913;-51
2022/03/23 10:15:09;;;;;;;;;;;;;;;;;;5024785;28;19905;-52
2022/03/23 10:17:35;;;;;;;;;;;;;;;;;;5024709;28;19909;-49
2022/03/23 10:20:02;;;;;;;;;;;;;;;;;;5024503;28;19952;-48
2022/03/23 10:22:28;;;;;;;;;;;;;;;;;;5025108;28;20369;-48
2022/03/23 10:24:55;;;;;;;;;;;;;;;;;;5024907;28;19909;-48
2022/03/23 10:27:23;;;;;;;;;;;;;;;;;;5024295;28;20006;-48
2022/03/23 10:29:49;;;;;;;;;;;;;;;;;;5024570;28;20487;-47
2022/03/23 10:32:17;;;;;;;;;;;;;;;;;;5024505;28;19909;-48
2022/03/23 10:34:51;;;;;;;3.78;2.45;;;;;;;;;;5023275;28;20469;-52
2022/03/23 10:37:17;;;;;;;;;;;;;;;;;;5024535;28;20072;-49
2022/03/23 10:39:44;;;;;;;3.28;2.33;;;;;;;;;;5024157;28;19998;-52
2022/03/23 10:42:13;;;;;;;3.25;2.53;;;;;;;;;;5023755;28;20030;-51
2022/03/23 10:44:40;;;;;;;3.20;2.28;;;;;;;;;;5023880;28;20623;-51
2022/03/23 10:47:06;;;;;;;2.38;2.00;;;;;;;;;;5023866;28;20037;-52
2022/03/23 10:49:33;;;;;;;2.30;1.90;;;;;;;;;;5024072;28;20040;-49
2022/03/23 10:52:32;;;;;;;2.38;1.90;;;;;;;;;;5024212;28;20032;-49
2022/03/23 10:55:05;;;;;;;2.88;1.80;;;;;;;;;;5022919;28;20164;-52
2022/03/23 10:57:46;;;;;;;2.08;1.88;;;;;;;;;;5025446;28;20040;-53
2022/03/23 11:00:18;;;;;;;3.35;2.25;;;;;;;;;;5028225;28;20108;-53
2022/03/23 11:02:46;;;;;;;2.78;2.10;;;;;;;;;;5029460;28;20492;-52
2022/03/23 11:05:29;;;;;;;2.15;1.88;;;;;;;;;;5037890;28;20033;-51
2022/03/23 11:08:07;;;;;;;2.95;2.10;;;;;;;;;;5040434;28;20041;-53
2022/03/23 11:16:09;;;;;;;3.63;2.53;;;;;;;;;;5028848;28;20099;-50
2022/03/23 11:18:35;;;;;;;4.38;2.90;;;;;;;;;;5036993;28;20086;-52
2022/03/23 11:21:02;;;;;;;4.10;2.42;;;;;;;;;;5049263;28;20021;-52
2022/03/23 11:23:30;;;;;;;2.75;2.33;;;;;;;;;;5032150;28;20041;-51
2022/03/23 11:25:59;;;;;;;3.10;2.28;;;;;;;;;;5030464;28;20034;-51
2022/03/23 11:28:26;;;;;;;4.85;2.83;;;;;;;;;;5029961;28;20037;-51
2022/03/23 11:30:52;;;;;;;4.32;2.83;;;;;;;;;;5032261;28;20029;-51
2022/03/23 11:33:22;;;;;;;4.82;2.90;;;;;;;;;;5041141;28;20036;-52
2022/03/23 11:35:49;;;;;;;4.13;2.47;;;;;;;;;;5032410;28;20111;-50
2022/03/23 11:38:37;;;;;;;5.35;2.50;;;;;;;;;;5035579;28;20078;-52
2022/03/23 11:41:04;;;;;;;4.82;2.72;;;;;;;;;;5039347;28;20517;-52
2022/03/23 11:43:33;;;;;;;4.47;3.03;;;;;;;;;;5049618;28;20061;-53
2022/03/23 11:46:00;;;;;;;3.47;2.67;;;;;;;;;;5035307;28;20382;-52
2022/03/23 11:48:46;;;;;;;6.95;3.22;;;;;;;;;;5028910;28;20029;-51
2022/03/23 11:51:24;;;;;;;5.78;3.30;;;;;;;;;;5032315;28;20033;-52
2022/03/23 11:54:01;;;;;;;4.07;3.08;;;;;;;;;;5033997;28;20045;-52
2022/03/23 11:56:42;;;;;;;4.70;3.47;;;;;;;;;;5030479;28;20072;-52
2022/03/23 11:59:19;;;;;;;4.20;2.95;;;;;;;;;;5039510;28;20032;-52
2022/03/23 12:01:45;;;;;;;4.15;3.00;;;;;;;;;;5028552;28;20029;-52
2022/03/23 12:04:14;;;;;;;2.75;2.20;;;;;;;;;;5028891;28;20045;-52
2022/03/23 12:06:42;;;;;;;3.00;2.10;;;;;;;;;;5032047;28;20052;-52
2022/03/23 12:09:08;;;;;;;2.67;2.05;;;;;;;;;;5044525;28;20839;-52
2022/03/23 12:11:46;;;;;;;2.22;1.98;;;;;;;;;;5027637;28;20074;-53
2022/03/23 12:14:26;;;;;;;2.97;2.35;;;;;;;;;;5038947;28;20029;-52
2022/03/23 12:16:52;;;;;;;2.78;2.03;;;;;;;;;;5031168;28;20029;-51
2022/03/23 12:19:28;;;;;;;2.78;1.98;;;;;;;;;;5028412;28;20033;-52
2022/03/23 12:21:54;;;;;;;2.40;1.92;;;;;;;;;;5028472;28;20025;-49
2022/03/23 12:24:46;;;;;;;2.22;1.85;;;;;;;;;;5027712;28;20499;-51
2022/03/23 12:27:35;;;;;;;3.33;2.38;;;;;;;;;;5031076;28;20532;-53
2022/03/23 12:30:06;;;;;;;2.90;2.28;;;;;;;;;;5035643;28;20079;-52
2022/03/23 12:32:37;;;;;;;2.45;2.22;;;;;;;;;;5027997;28;20028;-51
2022/03/23 12:35:04;;;;;;;2.85;2.22;;;;;;;;;;5036593;28;20068;-52
2022/03/23 12:37:41;;;;;;;3.33;2.63;;;;;;;;;;5030650;28;20022;-52
2022/03/23 12:40:09;;;;;;;3.03;2.40;;;;;;;;;;5034486;28;20105;-51
2022/03/23 12:42:40;;;;;;;3.88;2.90;;;;;;;;;;5028088;28;20022;-53
2022/03/23 12:45:09;;;;;;;3.55;2.70;;;;;;;;;;5027535;28;20033;-50
2022/03/23 12:47:35;;;;;;;4.07;3.10;;;;;;;;;;5027692;28;20025;-52
2022/03/23 12:58:37;;;;;;;3.92;3.15;;;;;;;;;;5042963;28;20036;-51
2022/03/23 13:01:08;;;;;;;3.42;2.65;;;;;;;;;;5040035;28;20095;-52
2022/03/23 13:03:41;;;;;;;3.22;2.60;;;;;;;;;;5053026;28;20108;-49
2022/03/23 13:06:17;;;;;;;3.55;2.80;;;;;;;;;;5047434;28;20021;-52
2022/03/23 13:08:48;;;;;;;3.60;2.65;;;;;;;;;;5042725;28;20099;-52
2022/03/23 13:11:24;;;;;;;2.80;2.38;;;;;;;;;;5044519;28;20115;-53
2022/03/23 13:13:51;;;;;;;3.85;2.83;;;;;;;;;;5031564;28;20028;-53
2022/03/23 13:16:25;;;;;;;3.72;2.60;;;;;;;;;;5048549;28;20132;-53
2022/03/23 13:18:53;;;;;;;4.40;2.97;;;;;;;;;;5044905;28;20091;-51
2022/03/23 13:21:21;;;;;;;5.55;2.65;;;;;;;;;;5039751;28;20033;-52
2022/03/23 13:23:54;;;;;;;4.38;2.88;;;;;;;;;;5026651;28;20030;-51
2022/03/23 13:26:24;;;;;;;5.88;3.30;;;;;;;;;;5043807;28;20043;-53
2022/03/23 13:29:01;;;;;;;5.32;3.47;;;;;;;;;;5036175;28;20035;-53
2022/03/23 13:31:31;;;;;;;4.88;3.50;;;;;;;;;;5041072;28;20060;-52
2022/03/23 13:34:01;;;;;;;5.57;3.13;;;;;;;;;;5034413;28;20033;-52
2022/03/23 13:36:28;;;;;;;3.50;2.72;;;;;;;;;;5026659;28;20021;-51
2022/03/23 13:38:55;;;;;;;5.30;3.22;;;;;;;;;;5035932;28;20034;-53
2022/03/23 13:44:08;;;;;;;5.10;3.25;;;;;;;;;;5043352;28;20099;-53
2022/03/23 13:46:34;;;;;;;4.05;3.20;;;;;;;;;;5026833;28;20033;-52
2022/03/23 13:49:01;;;;;;;3.97;3.25;;;;;;;;;;5025439;28;20034;-52
2022/03/23 13:51:39;;;;;;;4.75;3.40;;;;;;;;;;5026347;28;20120;-52
2022/03/23 13:54:06;;;;;;;4.22;3.28;;;;;;;;;;5028039;28;20025;-52
2022/03/23 13:56:34;;;;;;;3.85;3.13;;;;;;;;;;5027964;28;20036;-54
2022/03/23 13:59:01;;;;;;;3.78;2.80;;;;;;;;;;5044461;28;20111;-53
2022/03/23 14:01:28;;;;;;;4.32;2.88;;;;;;;;;;5066533;28;20031;-54
2022/03/23 14:04:03;;;;;;;3.67;2.72;;;;;;;;;;5066040;28;20420;-54
2022/03/23 14:06:30;;;;;;;3.63;2.75;;;;;;;;;;5052245;28;20029;-52
2022/03/23 14:08:57;;;;;;;4.60;3.20;;;;;;;;;;5044052;28;20107;-53
2022/03/23 14:14:14;;;;;;;3.97;3.30;;;;;;;;;;5045590;28;20099;-51
2022/03/23 14:16:40;;;;;;;6.65;3.90;;;;;;;;;;5026405;28;20409;-53
2022/03/23 14:19:08;;;;;;;4.78;3.67;;;;;;;;;;5024551;28;20026;-54
2022/03/23 14:21:34;;;;;;;5.05;3.22;;;;;;;;;;5025325;28;20079;-53
2022/03/23 14:24:00;;;;;;;4.90;3.40;;;;;;;;;;5025175;28;20033;-53
2022/03/23 14:26:28;;;;;;;4.18;3.05;;;;;;;;;;5031220;28;20029;-54
2022/03/23 14:28:54;;;;;;;4.13;3.15;;;;;;;;;;5044032;28;20434;-54
2022/03/23 14:31:22;;;;;;;3.70;2.90;;;;;;;;;;5040657;28;20020;-50
2022/03/23 14:34:01;;;;;;;5.25;3.08;;;;;;;;;;5026192;28;20037;-50
2022/03/23 14:36:30;;;;;;;4.68;3.30;;;;;;;;;;5030916;28;20056;-54
2022/03/23 14:38:57;;;;;;;3.75;3.13;;;;;;;;;;5033239;28;20068;-49
2022/03/23 14:41:27;;;;;;;4.60;3.53;;;;;;;;;;5041037;28;20025;-55
2022/03/23 14:43:53;;;;;;;5.75;3.47;;;;;;;;;;5046144;28;20041;-55
2022/03/23 14:46:21;;;;;;;3.80;3.05;;;;;;;;;;5049242;28;20108;-51
2022/03/23 14:49:00;;;;;;;3.75;2.80;;;;;;;;;;5048940;28;20108;-51
2022/03/23 14:51:26;;;;;;;5.22;3.60;;;;;;;;;;5049723;28;20083;-50
2022/03/23 14:53:53;;;;;;;3.70;3.30;;;;;;;;;;5046903;28;20025;-52
2022/03/23 14:56:19;;;;;;;4.63;3.20;;;;;;;;;;5041032;28;20026;-51
2022/03/23 14:58:45;;;;;;;4.55;3.10;;;;;;;;;;5028590;28;20056;-52
2022/03/23 15:01:12;;;;;;;3.88;3.00;;;;;;;;;;5028603;28;20112;-52
2022/03/23 15:03:38;;;;;;;3.90;3.10;;;;;;;;;;5028475;28;20034;-50
2022/03/23 15:14:21;;;;;;;4.35;3.20;;;;;;;;;;5028926;28;20057;-52
2022/03/23 15:16:47;;;;;;;4.57;3.47;;;;;;;;;;5028357;28;20020;-52
2022/03/23 15:19:15;;;;;;;6.55;3.55;;;;;;;;;;5028784;28;20519;-52
2022/03/23 15:21:42;;;;;;;4.60;3.38;;;;;;;;;;5028143;28;20053;-52
2022/03/23 15:24:08;;;;;;;4.05;3.10;;;;;;;;;;5029086;28;20619;-51
2022/03/23 15:26:35;;;;;;;4.30;3.03;;;;;;;;;;5032476;28;20447;-49
2022/03/23 15:29:02;;;;;;;6.28;3.70;;;;;;;;;;5035014;28;20049;-49
2022/03/23 15:31:29;;;;;;;4.78;3.35;;;;;;;;;;5049321;28;20500;-51
2022/03/23 15:33:55;;;;;;;4.97;3.40;;;;;;;;;;5038158;28;20384;-50
2022/03/23 15:36:22;;;;;;;4.95;3.85;;;;;;;;;;5028450;28;20026;-50
2022/03/23 15:38:49;;;;;;;3.67;3.00;;;;;;;;;;5027827;28;20497;-51
2022/03/23 15:41:15;;;;;;;4.13;3.58;;;;;;;;;;5028168;28;20052;-50
2022/03/23 15:43:44;;;;;;;4.25;3.33;;;;;;;;;;5027814;28;20488;-52
2022/03/23 15:46:11;;;;;;;5.38;3.85;;;;;;;;;;5026205;28;20048;-52
2022/03/23 15:48:37;;;;;;;5.13;3.43;;;;;;;;;;5031209;28;20097;-52
2022/03/23 15:51:06;;;;;;;4.97;3.80;;;;;;;;;;5032371;28;20444;-52
2022/03/23 15:53:33;;;;;;;4.38;3.13;;;;;;;;;;5052383;28;20060;-52
2022/03/23 15:55:59;;;;;;;3.90;3.20;;;;;;;;;;5047534;28;20920;-50
2022/03/23 15:58:25;;;;;;;4.53;3.40;;;;;;;;;;5058903;28;20620;-52
2022/03/23 16:00:52;;;;;;;4.55;3.60;;;;;;;;;;5054600;28;20024;-52
2022/03/23 16:03:18;;;;;;;4.25;3.28;;;;;;;;;;5067592;28;20025;-53
2022/03/23 16:05:45;;;;;;;5.35;3.70;;;;;;;;;;5062825;28;20110;-53
2022/03/23 16:08:11;;;;;;;4.88;3.58;;;;;;;;;;5047653;28;20033;-52
2022/03/23 16:10:37;;;;;;;5.95;4.10;;;;;;;;;;5047431;28;20055;-53
2022/03/23 16:13:04;;;;;;;6.07;4.15;;;;;;;;;;5048107;28;20430;-53
2022/03/23 16:15:31;;;;;;;5.53;3.40;;;;;;;;;;5047592;28;20499;-53
2022/03/23 16:17:57;;;;;;;5.38;3.58;;;;;;;;;;5036663;28;20056;-51
2022/03/23 16:20:24;;;;;;;5.82;4.20;;;;;;;;;;5036394;28;20028;-50
2022/03/23 16:22:50;;;;;;;3.88;2.95;;;;;;;;;;5055115;28;20063;-52
2022/03/23 16:25:21;;;;;;;6.07;3.90;;;;;;;;;;5050129;28;20087;-49
2022/03/23 16:27:48;;;;;;;6.85;3.90;;;;;;;;;;5035512;28;20117;-51
2022/03/23 16:30:17;;;;;;;4.72;3.85;;;;;;;;;;5046962;28;20038;-51
2022/03/23 16:32:43;;;;;;;4.55;3.38;;;;;;;;;;5040138;28;20029;-51
2022/03/23 16:35:10;;;;;;;3.67;3.30;;;;;;;;;;5040264;28;20029;-49
2022/03/23 16:37:38;;;;;;;4.00;3.60;;;;;;;;;;5028048;28;20036;-51
2022/03/23 16:40:05;;;;;;;5.65;4.63;;;;;;;;;;5027811;28;20022;-50